Terminal Aerodrome Forecast
Issued by NWS

Home | Current Version | Previous Version | Text Only | Print | Product List | Glossary On
Versions: 1 2 3 4 5 6 7 8 9 10 11 12 13 14 15 16 17 18 19 20 21 22 23 24
000
FTUS46 KMTR 310539
TAFSFO
TAF
KSFO 310539Z 3106/0112 29013KT P6SM FEW005 SCT100 BKN180
     FM310800 28007KT P6SM OVC008
     FM311700 VRB05KT P6SM FEW010
     FM312100 29018KT P6SM FEW012
     FM010700 28014KT P6SM BKN008=

USA.gov is the U.S. government's official web portal to all federal, state and local government web resources and services.